createdAt,value
2023-04-16T00:01:35.928Z,94619.16
2023-04-16T00:04:03.269Z,94605.56
2023-04-16T00:06:32.048Z,94620.19
2023-04-16T00:08:58.612Z,94617.59
2023-04-16T00:11:25.407Z,94624.13
2023-04-16T00:13:52.066Z,94622.28
2023-04-16T00:16:18.704Z,94618.28
2023-04-16T00:18:45.513Z,94625.03
2023-04-16T00:21:12.318Z,94628.69
2023-04-16T00:23:40.416Z,94628.69
2023-04-16T00:26:06.987Z,94632.06
2023-04-16T00:28:33.525Z,94625.78
2023-04-16T00:31:01.557Z,94627.31
2023-04-16T00:33:30.023Z,94635.28
2023-04-16T00:35:56.653Z,94629.94
2023-04-16T00:38:23.350Z,94639.31
2023-04-16T00:40:51.391Z,94629.75
2023-04-16T00:43:22.777Z,94638.66
2023-04-16T00:45:49.512Z,94629.63
2023-04-16T00:48:16.649Z,94638.88
2023-04-16T00:50:43.425Z,94640.13
2023-04-16T00:53:10.043Z,94632.88
2023-04-16T00:55:37.117Z,94642.69
2023-04-16T00:58:05.043Z,94650.84
2023-04-16T01:00:31.657Z,94648.00
2023-04-16T01:03:00.083Z,94643.72
2023-04-16T01:05:26.974Z,94647.59
2023-04-16T01:07:53.556Z,94647.09
2023-04-16T01:10:20.274Z,94643.63
2023-04-16T01:12:46.925Z,94644.78
2023-04-16T01:15:14.999Z,94646.84
2023-04-16T01:17:41.676Z,94640.34
2023-04-16T01:20:08.866Z,94636.75
2023-04-16T01:22:36.805Z,94636.94
2023-04-16T01:25:04.015Z,94642.59
2023-04-16T01:27:31.198Z,94635.72
2023-04-16T01:29:57.816Z,94638.94
2023-04-16T01:32:24.476Z,94635.88
2023-04-16T01:34:51.087Z,94637.50
2023-04-16T01:37:17.725Z,94641.41
2023-04-16T01:39:45.760Z,94636.38
2023-04-16T01:42:12.414Z,94642.13
2023-04-16T01:44:38.993Z,94645.81
2023-04-16T01:47:05.711Z,94655.81
2023-04-16T01:49:33.771Z,94664.00
2023-04-16T01:52:00.634Z,94659.06
2023-04-16T01:54:27.272Z,94661.31
2023-04-16T01:56:55.618Z,94651.09
2023-04-16T01:59:22.250Z,94664.66
2023-04-16T02:01:48.920Z,94655.91
2023-04-16T02:04:15.710Z,94649.78
2023-04-16T02:06:42.312Z,94652.28
2023-04-16T02:09:09.155Z,94655.06
2023-04-16T02:11:35.837Z,94655.41
2023-04-16T02:14:03.756Z,94653.53
2023-04-16T02:16:30.542Z,94651.84
2023-04-16T02:18:57.140Z,94651.41
2023-04-16T02:21:23.807Z,94651.19
2023-04-16T02:23:51.875Z,94653.03
2023-04-16T02:26:18.712Z,94655.88
2023-04-16T02:28:45.463Z,94655.22
2023-04-16T02:31:13.431Z,94647.16
2023-04-16T02:33:40.071Z,94648.53
2023-04-16T02:36:07.709Z,94656.63
2023-04-16T02:38:34.328Z,94658.44
2023-04-16T02:41:01.006Z,94656.84
2023-04-16T02:43:27.635Z,94655.44
2023-04-16T02:45:54.249Z,94661.84
2023-04-16T02:48:22.218Z,94663.56
2023-04-16T02:50:48.780Z,94660.09
2023-04-16T02:53:15.345Z,94666.13
2023-04-16T02:55:41.964Z,94667.91
2023-04-16T02:58:08.542Z,94664.47
2023-04-16T03:00:35.428Z,94664.06
2023-04-16T03:03:02.409Z,94659.31
2023-04-16T03:05:30.384Z,94670.31
2023-04-16T03:07:57.275Z,94660.16
2023-04-16T03:10:24.614Z,94665.41
2023-04-16T03:12:51.249Z,94663.19
2023-04-16T03:15:18.247Z,94658.59
2023-04-16T03:17:44.935Z,94665.47
2023-04-16T03:20:12.152Z,94668.84
2023-04-16T03:22:40.410Z,94665.41
2023-04-16T03:25:08.147Z,94668.84
2023-04-16T03:27:35.371Z,94668.66
2023-04-16T03:30:04.726Z,94665.41
2023-04-16T03:32:31.361Z,94665.81
2023-04-16T03:34:58.011Z,94658.34
2023-04-16T03:37:24.594Z,94672.28
2023-04-16T03:39:52.891Z,94673.25
2023-04-16T03:42:19.516Z,94669.03
2023-04-16T03:44:46.111Z,94669.44
2023-04-16T03:47:12.728Z,94665.41
2023-04-16T03:49:39.323Z,94678.94
2023-04-16T03:52:06.158Z,94676.53
2023-04-16T03:54:32.836Z,94683.41
2023-04-16T03:57:01.128Z,94683.78
2023-04-16T03:59:27.935Z,94679.16
2023-04-16T04:01:54.565Z,94677.94
2023-04-16T04:04:21.416Z,94686.25
2023-04-16T04:06:48.244Z,94691.13
2023-04-16T04:09:16.330Z,94691.91
2023-04-16T04:11:43.290Z,94696.13
2023-04-16T04:14:11.321Z,94701.44
2023-04-16T04:16:37.983Z,94697.41
2023-04-16T04:19:04.596Z,94702.25
2023-04-16T04:21:31.931Z,94702.25
2023-04-16T04:23:58.684Z,94700.63
2023-04-16T04:26:25.557Z,94700.84
2023-04-16T04:28:52.270Z,94704.06
2023-04-16T04:31:20.357Z,94706.31
2023-04-16T04:33:46.982Z,94705.91
2023-04-16T04:36:13.617Z,94709.97
2023-04-16T04:38:40.469Z,94713.41
2023-04-16T04:41:07.109Z,94715.41
2023-04-16T04:43:33.821Z,94717.81
2023-04-16T04:46:00.524Z,94715.19
2023-04-16T04:48:28.569Z,94720.28
2023-04-16T04:50:55.375Z,94726.56
2023-04-16T04:53:21.996Z,94721.50
2023-04-16T04:55:52.341Z,94723.72
2023-04-16T04:58:20.966Z,94721.88
2023-04-16T05:00:47.565Z,94736.44
2023-04-16T05:03:19.950Z,94734.44
2023-04-16T05:05:48.182Z,94738.09
2023-04-16T05:08:14.834Z,94744.75
2023-04-16T05:10:41.438Z,94740.72
2023-04-16T05:13:08.025Z,94741.16
2023-04-16T05:15:34.608Z,94738.91
2023-04-16T05:18:03.844Z,94743.16
2023-04-16T05:20:30.896Z,94745.78
2023-04-16T05:22:58.976Z,94748.63
2023-04-16T05:25:25.671Z,94746.00
2023-04-16T05:27:52.334Z,94749.84
2023-04-16T05:30:19.159Z,94753.66
2023-04-16T05:32:45.873Z,94747.38
2023-04-16T05:35:13.529Z,94750.72
2023-04-16T05:37:40.858Z,94756.97
2023-04-16T05:40:10.631Z,94757.59
2023-04-16T05:42:37.045Z,94755.94
2023-04-16T05:45:04.936Z,94757.56
2023-04-16T05:47:31.542Z,94764.47
2023-04-16T05:49:58.131Z,94755.75
2023-04-16T05:52:24.717Z,94764.25
2023-04-16T05:54:51.337Z,94764.25
2023-04-16T05:57:19.294Z,94764.47
2023-04-16T05:59:45.875Z,94769.91
2023-04-16T06:02:12.649Z,94766.88
2023-04-16T06:04:39.323Z,94776.81
2023-04-16T06:07:06.205Z,94776.81
2023-04-16T06:09:32.797Z,94762.25
2023-04-16T06:11:59.823Z,94775.41
2023-04-16T06:14:27.769Z,94769.13
2023-04-16T06:16:54.374Z,94775.41
2023-04-16T06:19:20.982Z,94770.34
2023-04-16T06:21:47.662Z,94771.16
2023-04-16T06:24:14.279Z,94777.81
2023-04-16T06:26:41.083Z,94771.38
2023-04-16T06:29:07.944Z,94766.91
2023-04-16T06:31:36.137Z,94775.59
2023-04-16T06:34:02.771Z,94772.97
2023-04-16T06:36:29.387Z,94770.56
2023-04-16T06:38:56.086Z,94765.72
2023-04-16T06:41:25.469Z,94773.41
2023-04-16T06:43:52.554Z,94771.38
2023-04-16T06:46:19.225Z,94777.22
2023-04-16T06:48:47.562Z,94778.03
2023-04-16T06:51:14.260Z,94778.44
2023-04-16T06:53:42.423Z,94782.09
2023-04-16T06:56:09.093Z,94777.63
2023-04-16T06:58:36.324Z,94774.59
2023-04-16T07:01:05.698Z,94777.44
2023-04-16T07:03:32.558Z,94786.34
2023-04-16T07:06:00.585Z,94779.84
2023-04-16T07:08:27.270Z,94780.88
2023-04-16T07:10:54.334Z,94777.66
2023-04-16T07:13:21.586Z,94788.88
2023-04-16T07:15:48.290Z,94787.09
2023-04-16T07:18:14.944Z,94783.16
2023-04-16T07:20:41.614Z,94778.69
2023-04-16T07:23:09.628Z,94788.56
2023-04-16T07:25:36.220Z,94784.72
2023-04-16T07:28:03.839Z,94784.72
2023-04-16T07:30:34.202Z,94794.63
2023-04-16T07:33:03.245Z,94791.28
2023-04-16T07:35:30.388Z,94793.47
2023-04-16T07:37:57.219Z,94794.94
2023-04-16T07:40:25.410Z,94803.28
2023-04-16T07:42:52.321Z,94804.78
2023-04-16T07:45:19.389Z,94804.16
2023-04-16T07:47:46.093Z,94801.38
2023-04-16T07:50:12.997Z,94807.22
2023-04-16T07:52:41.377Z,94805.78
2023-04-16T07:55:08.640Z,94808.91
2023-04-16T07:57:36.831Z,94815.34
2023-04-16T08:00:06.964Z,94813.38
2023-04-16T08:02:33.826Z,94815.38
2023-04-16T08:05:00.823Z,94817.81
2023-04-16T08:07:27.605Z,94816.53
2023-04-16T08:09:54.583Z,94825.63
2023-04-16T08:12:21.318Z,94828.25
2023-04-16T08:14:49.579Z,94827.84
2023-04-16T08:17:16.372Z,94827.03
2023-04-16T08:19:43.953Z,94832.97
2023-04-16T08:22:10.727Z,94835.75
2023-04-16T08:24:37.363Z,94836.94
2023-04-16T08:27:15.410Z,94841.38
2023-04-16T08:29:44.845Z,94835.19
2023-04-16T08:32:12.906Z,94848.91
2023-04-16T08:34:39.513Z,94846.25
2023-04-16T08:37:06.104Z,94841.00
2023-04-16T08:39:32.993Z,94857.34
2023-04-16T08:42:02.461Z,94853.50
2023-04-16T08:44:32.510Z,94855.31
2023-04-16T08:46:59.673Z,94854.69
2023-04-16T08:49:28.263Z,94856.13
2023-04-16T08:51:56.355Z,94856.34
2023-04-16T08:54:38.813Z,94856.72
2023-04-16T08:57:07.046Z,94861.19
2023-04-16T08:59:34.540Z,94860.44
2023-04-16T09:02:02.089Z,94872.09
2023-04-16T09:04:31.920Z,94871.94
2023-04-16T09:06:58.862Z,94874.19
2023-04-16T09:09:26.795Z,94872.75
2023-04-16T09:11:54.129Z,94875.78
2023-04-16T09:14:21.998Z,94871.69
2023-04-16T09:16:49.335Z,94873.97
2023-04-16T09:19:16.403Z,94885.44
2023-04-16T09:21:47.312Z,94886.41
2023-04-16T09:24:14.089Z,94883.28
2023-04-16T09:26:41.757Z,94886.19
2023-04-16T09:29:09.877Z,94891.34
2023-04-16T09:31:36.935Z,94880.03
2023-04-16T09:34:04.981Z,94884.69
2023-04-16T09:36:32.678Z,94888.50
2023-04-16T09:39:01.323Z,94889.06
2023-04-16T09:41:29.069Z,94881.47
2023-04-16T09:43:57.577Z,94882.25
2023-04-16T09:46:25.530Z,94864.06
2023-04-16T09:48:52.230Z,94878.38
2023-04-16T09:51:18.881Z,94886.28
2023-04-16T09:53:45.660Z,94881.63
2023-04-16T09:56:13.804Z,94882.03
2023-04-16T09:58:41.366Z,94886.91
2023-04-16T10:01:13.905Z,94874.28
2023-04-16T10:03:41.122Z,94881.41
2023-04-16T10:06:13.203Z,94888.53
2023-04-16T10:08:43.208Z,94879.59
2023-04-16T10:11:10.715Z,94885.91
2023-04-16T10:13:38.643Z,94890.41
2023-04-16T10:16:06.942Z,94891.97
2023-04-16T10:18:34.884Z,94894.13
2023-04-16T10:21:02.371Z,94892.53
2023-04-16T10:23:29.647Z,94890.09
2023-04-16T10:25:57.726Z,94898.16
2023-04-16T10:28:24.758Z,94893.72
2023-04-16T10:30:53.693Z,94891.88
2023-04-16T10:33:22.715Z,94896.56
2023-04-16T10:36:01.384Z,94900.00
2023-04-16T10:38:34.080Z,94892.88
2023-04-16T10:41:03.045Z,94890.44
2023-04-16T10:43:30.762Z,94895.53
2023-04-16T10:46:17.785Z,94892.66
2023-04-16T10:48:49.958Z,94896.69
2023-04-16T10:51:26.140Z,94900.94
2023-04-16T10:53:54.292Z,94900.69
2023-04-16T10:56:24.809Z,94900.41
2023-04-16T10:58:53.325Z,94906.47
2023-04-16T11:01:30.422Z,94902.38
2023-04-16T11:03:59.349Z,94898.63
2023-04-16T11:06:27.719Z,94901.22
2023-04-16T11:08:55.397Z,94902.34
2023-04-16T11:11:22.569Z,94903.63
2023-04-16T11:13:49.667Z,94903.84
2023-04-16T11:16:16.908Z,94905.06
2023-04-16T11:18:51.758Z,94903.19
2023-04-16T11:21:19.775Z,94908.41
2023-04-16T11:23:48.488Z,94901.38
2023-04-16T11:26:26.005Z,94907.06
2023-04-16T11:28:54.367Z,94908.69
2023-04-16T11:31:23.381Z,94913.38
2023-04-16T11:33:51.723Z,94908.28
2023-04-16T11:36:18.604Z,94914.34
2023-04-16T11:38:46.877Z,94906.78
2023-04-16T11:41:19.851Z,94909.41
2023-04-16T11:43:46.498Z,94910.03
2023-04-16T11:46:24.550Z,94902.75
2023-04-16T11:48:56.109Z,94918.34
2023-04-16T11:51:23.522Z,94918.31
2023-04-16T11:53:52.787Z,94886.19
2023-04-16T11:56:27.485Z,94922.16
2023-04-16T11:59:08.651Z,94921.75
2023-04-16T12:01:36.307Z,94927.03
2023-04-16T12:04:04.657Z,94917.00
2023-04-16T12:06:32.756Z,94929.63
2023-04-16T12:08:59.462Z,94926.41
2023-04-16T12:11:39.323Z,94922.75
2023-04-16T12:14:09.996Z,94929.84
2023-04-16T12:16:36.825Z,94924.38
2023-04-16T12:19:05.657Z,94924.97
2023-04-16T12:21:39.678Z,94925.59
2023-04-16T12:24:07.104Z,94925.59
2023-04-16T12:26:44.586Z,94924.34
2023-04-16T12:29:16.034Z,94920.91
2023-04-16T12:31:42.766Z,94926.72
2023-04-16T12:34:10.778Z,94919.31
2023-04-16T12:36:38.122Z,94928.81
2023-04-16T12:39:05.204Z,94923.78
2023-04-16T12:41:31.802Z,94928.69
2023-04-16T12:44:07.156Z,94921.56
2023-04-16T12:46:33.777Z,94924.34
2023-04-16T12:49:00.438Z,94927.66
2023-04-16T12:51:28.490Z,94924.19
2023-04-16T12:53:55.497Z,94934.09
2023-04-16T12:56:22.273Z,94926.19
2023-04-16T12:58:51.672Z,94930.00
2023-04-16T13:01:18.759Z,94933.84
2023-04-16T13:03:45.954Z,94933.03
2023-04-16T13:06:13.236Z,94927.19
2023-04-16T13:08:41.423Z,94936.09
2023-04-16T13:11:08.724Z,94941.84
2023-04-16T13:13:35.374Z,94939.25
2023-04-16T13:16:04.141Z,94934.72
2023-04-16T13:18:30.832Z,94931.25
2023-04-16T13:20:57.930Z,94930.41
2023-04-16T13:23:24.541Z,94936.50
2023-04-16T13:25:53.162Z,94933.44
2023-04-16T13:28:20.099Z,94935.06
2023-04-16T13:30:47.155Z,94931.63
2023-04-16T13:33:13.960Z,94939.16
2023-04-16T13:35:40.549Z,94937.34
2023-04-16T13:38:07.150Z,94939.81
2023-04-16T13:40:33.773Z,94945.69
2023-04-16T13:43:01.769Z,94940.03
2023-04-16T13:45:28.692Z,94946.28
2023-04-16T13:47:56.305Z,94936.22
2023-04-16T13:50:23.338Z,94943.66
2023-04-16T13:52:49.922Z,94943.66
2023-04-16T13:55:19.042Z,94942.38
2023-04-16T13:57:46.278Z,94942.19
2023-04-16T14:00:16.110Z,94943.38
2023-04-16T14:02:43.297Z,94934.06
2023-04-16T14:05:10.047Z,94944.16
2023-04-16T14:07:37.509Z,94937.88
2023-04-16T14:10:04.591Z,94938.69
2023-04-16T14:12:32.444Z,94930.97
2023-04-16T14:14:59.101Z,94937.25
2023-04-16T14:17:27.112Z,94930.16
2023-04-16T14:19:53.728Z,94942.09
2023-04-16T14:22:20.401Z,94934.22
2023-04-16T14:24:46.998Z,94942.31
2023-04-16T14:27:13.611Z,94936.84
2023-04-16T14:29:41.237Z,94943.94
2023-04-16T14:32:08.086Z,94939.44
2023-04-16T14:34:36.222Z,94940.16
2023-04-16T14:37:02.902Z,94944.22
2023-04-16T14:39:29.852Z,94941.69
2023-04-16T14:41:56.524Z,94938.44
2023-04-16T14:44:23.367Z,94945.13
2023-04-16T14:46:49.987Z,94944.59
2023-04-16T14:49:17.010Z,94946.16
2023-04-16T14:51:46.234Z,94938.84
2023-04-16T14:54:12.874Z,94944.63
2023-04-16T14:56:39.513Z,94950.19
2023-04-16T14:59:06.770Z,94946.53
2023-04-16T15:01:34.528Z,94941.06
2023-04-16T15:04:02.888Z,94954.63
2023-04-16T15:06:29.750Z,94956.03
2023-04-16T15:08:57.775Z,94947.31
2023-04-16T15:11:24.427Z,94951.97
2023-04-16T15:13:51.088Z,94951.56
2023-04-16T15:16:17.942Z,94952.56
2023-04-16T15:18:44.628Z,94955.81
2023-04-16T15:21:12.753Z,94960.69
2023-04-16T15:23:39.536Z,94959.06
2023-04-16T15:26:07.666Z,94957.47
2023-04-16T15:28:34.266Z,94957.03
2023-04-16T15:31:01.024Z,94967.22
2023-04-16T15:33:27.919Z,94952.81
2023-04-16T15:35:54.500Z,94962.94
2023-04-16T15:38:21.445Z,94963.53
2023-04-16T15:40:48.080Z,94963.66
2023-04-16T15:43:16.770Z,94963.53
2023-04-16T15:45:43.392Z,94972.53
2023-04-16T15:48:10.161Z,94975.09
2023-04-16T15:50:36.918Z,94974.16
2023-04-16T15:53:03.570Z,94975.31
2023-04-16T15:55:30.420Z,94971.03
2023-04-16T15:57:57.030Z,94967.19
2023-04-16T16:00:25.254Z,94975.28
2023-04-16T16:02:52.026Z,94970.22
2023-04-16T16:05:18.841Z,94973.47
2023-04-16T16:07:45.637Z,94976.09
2023-04-16T16:10:13.305Z,94976.69
2023-04-16T16:12:40.756Z,94984.19
2023-04-16T16:15:08.317Z,94981.53
2023-04-16T16:17:36.803Z,94984.38
2023-04-16T16:20:04.339Z,94976.50
2023-04-16T16:22:30.975Z,94986.63
2023-04-16T16:24:58.602Z,94987.22
2023-04-16T16:27:25.522Z,94992.28
2023-04-16T16:29:52.192Z,94992.28
2023-04-16T16:32:18.879Z,94990.66
2023-04-16T16:34:46.850Z,94994.72
2023-04-16T16:37:13.452Z,94997.34
2023-04-16T16:39:40.180Z,94998.38
2023-04-16T16:42:09.032Z,94993.91
2023-04-16T16:44:35.638Z,94990.47
2023-04-16T16:47:02.270Z,94993.09
2023-04-16T16:49:29.094Z,94994.91
2023-04-16T16:51:57.656Z,94991.66
2023-04-16T16:54:24.256Z,94994.91
2023-04-16T16:56:50.816Z,94996.53
2023-04-16T16:59:17.407Z,94988.63
2023-04-16T17:01:43.998Z,94986.22
2023-04-16T17:04:10.706Z,94992.06
2023-04-16T17:06:38.783Z,94996.31
2023-04-16T17:09:07.172Z,94994.91
2023-04-16T17:11:33.809Z,95002.81
2023-04-16T17:14:00.397Z,95013.16
2023-04-16T17:16:27.035Z,95011.31
2023-04-16T17:18:53.685Z,95010.31
2023-04-16T17:21:20.322Z,95021.22
2023-04-16T17:23:46.929Z,95003.00
2023-04-16T17:26:14.995Z,95011.53
2023-04-16T17:28:41.604Z,95013.34
2023-04-16T17:31:08.582Z,95016.00
2023-04-16T17:33:35.519Z,95024.28
2023-04-16T17:36:02.153Z,95018.19
2023-04-16T17:38:28.810Z,95021.66
2023-04-16T17:40:57.050Z,95025.09
2023-04-16T17:43:25.290Z,95014.56
2023-04-16T17:45:51.983Z,95020.22
2023-04-16T17:48:18.672Z,95028.53
2023-04-16T17:50:45.350Z,95022.25
2023-04-16T17:53:12.298Z,95026.31
2023-04-16T17:55:38.893Z,95029.16
2023-04-16T17:58:05.723Z,95022.88
2023-04-16T18:00:33.737Z,95032.59
2023-04-16T18:03:00.513Z,95027.53
2023-04-16T18:05:27.554Z,95026.31
2023-04-16T18:07:55.381Z,95031.56
2023-04-16T18:10:22.241Z,95035.22
2023-04-16T18:12:48.909Z,95029.66
2023-04-16T18:15:15.705Z,95036.50
2023-04-16T18:17:43.739Z,95037.72
2023-04-16T18:20:12.513Z,95036.66
2023-04-16T18:22:39.093Z,95037.66
2023-04-16T18:25:06.697Z,95048.19
2023-04-16T18:27:33.369Z,95044.00
2023-04-16T18:29:59.972Z,95048.25
2023-04-16T18:32:30.642Z,95056.09
2023-04-16T18:34:59.100Z,95055.50
2023-04-16T18:37:25.986Z,95051.44
2023-04-16T18:39:52.649Z,95057.31
2023-04-16T18:42:19.271Z,95054.97
2023-04-16T18:44:51.586Z,95051.88
2023-04-16T18:47:18.386Z,95055.50
2023-04-16T18:49:45.011Z,95060.00
2023-04-16T18:52:13.088Z,95060.59
2023-04-16T18:54:40.862Z,95062.59
2023-04-16T18:57:07.470Z,95061.34
2023-04-16T18:59:34.099Z,95068.50
2023-04-16T19:02:00.704Z,95065.84
2023-04-16T19:04:27.390Z,95066.44
2023-04-16T19:06:54.047Z,95063.59
2023-04-16T19:09:24.782Z,95063.19
2023-04-16T19:11:51.559Z,95068.25
2023-04-16T19:14:18.257Z,95054.28
2023-04-16T19:16:44.883Z,95064.81
2023-04-16T19:19:11.870Z,95061.97
2023-04-16T19:21:38.699Z,95061.97
2023-04-16T19:24:05.958Z,95065.81
2023-04-16T19:26:33.916Z,95059.94
2023-04-16T19:29:00.649Z,95069.03
2023-04-16T19:31:27.551Z,95071.34
2023-04-16T19:33:54.183Z,95071.13
2023-04-16T19:36:20.888Z,95078.03
2023-04-16T19:38:47.526Z,95065.06
2023-04-16T19:41:14.153Z,95061.59
2023-04-16T19:43:42.082Z,95075.38
2023-04-16T19:46:09.068Z,95067.66
2023-04-16T19:48:36.339Z,95072.91
2023-04-16T19:51:05.969Z,95078.16
2023-04-16T19:53:34.136Z,95075.75
2023-04-16T19:56:01.018Z,95078.41
2023-04-16T19:58:27.966Z,95079.63
2023-04-16T20:00:56.412Z,95081.66
2023-04-16T20:03:23.153Z,95078.41
2023-04-16T20:05:50.056Z,95088.13
2023-04-16T20:08:16.774Z,95089.56
2023-04-16T20:10:43.490Z,95091.16
2023-04-16T20:13:12.049Z,95083.69
2023-04-16T20:15:38.658Z,95085.09
2023-04-16T20:18:08.463Z,95081.66
2023-04-16T20:20:36.430Z,95077.78
2023-04-16T20:23:03.069Z,95082.03
2023-04-16T20:25:29.989Z,95081.41
2023-04-16T20:27:56.594Z,95087.53
2023-04-16T20:30:28.750Z,95085.09
2023-04-16T20:32:56.227Z,95079.00
2023-04-16T20:35:24.318Z,95080.41
2023-04-16T20:37:50.924Z,95084.44
2023-04-16T20:40:17.698Z,95077.16
2023-04-16T20:42:46.372Z,95079.16
2023-04-16T20:45:13.352Z,95076.94
2023-04-16T20:47:40.017Z,95075.94
2023-04-16T20:50:07.880Z,95076.75
2023-04-16T20:52:36.472Z,95074.09
2023-04-16T20:55:03.214Z,95072.88
2023-04-16T20:57:31.911Z,95070.25
2023-04-16T20:59:58.623Z,95071.88
2023-04-16T21:02:25.637Z,95076.13
2023-04-16T21:04:52.530Z,95070.84
2023-04-16T21:07:19.222Z,95069.84
2023-04-16T21:09:47.146Z,95073.06
2023-04-16T21:12:13.800Z,95070.22
2023-04-16T21:14:40.384Z,95080.97
2023-04-16T21:17:07.043Z,95074.69
2023-04-16T21:19:33.638Z,95077.13
2023-04-16T21:22:02.441Z,95082.19
2023-04-16T21:24:29.139Z,95076.09
2023-04-16T21:26:57.325Z,95073.25
2023-04-16T21:29:23.957Z,95070.63
2023-04-16T21:31:50.663Z,95071.44
2023-04-16T21:34:17.337Z,95077.50
2023-04-16T21:36:44.157Z,95078.13
2023-04-16T21:39:11.393Z,95078.91
2023-04-16T21:41:38.337Z,95080.75
2023-04-16T21:44:06.370Z,95079.72
2023-04-16T21:46:33.070Z,95071.81
2023-04-16T21:48:59.724Z,95078.72
2023-04-16T21:51:29.782Z,95080.34
2023-04-16T21:53:56.384Z,95081.94
2023-04-16T21:56:23.077Z,95083.59
2023-04-16T21:58:49.742Z,95073.44
2023-04-16T22:01:17.790Z,95081.78
2023-04-16T22:03:47.439Z,95078.72
2023-04-16T22:06:14.184Z,95078.94
2023-04-16T22:08:40.737Z,95077.31
2023-04-16T22:11:07.327Z,95069.19
2023-04-16T22:13:33.906Z,95068.38
2023-04-16T22:16:01.357Z,95078.72
2023-04-16T22:18:32.994Z,95075.28
2023-04-16T22:21:00.554Z,95075.50
2023-04-16T22:23:27.141Z,95075.28
2023-04-16T22:25:55.324Z,95074.47
2023-04-16T22:28:22.167Z,95078.50
2023-04-16T22:30:48.733Z,95071.63
2023-04-16T22:33:15.622Z,95067.16
2023-04-16T22:35:43.645Z,95068.78
2023-04-16T22:38:10.455Z,95065.34
2023-04-16T22:40:37.062Z,95065.94
2023-04-16T22:43:03.694Z,95066.16
2023-04-16T22:45:30.338Z,95059.06
2023-04-16T22:47:56.950Z,95064.13
2023-04-16T22:50:23.601Z,95051.16
2023-04-16T22:52:51.532Z,95043.63
2023-04-16T22:55:18.271Z,95064.13
2023-04-16T22:57:44.855Z,95054.59
2023-04-16T23:00:16.163Z,95060.66
2023-04-16T23:02:43.225Z,95050.34
2023-04-16T23:05:10.484Z,95052.97
2023-04-16T23:07:37.273Z,95050.72
2023-04-16T23:10:08.213Z,95053.38
2023-04-16T23:12:37.233Z,95053.56
2023-04-16T23:15:06.308Z,95054.59
2023-04-16T23:17:33.853Z,95051.19
2023-04-16T23:20:00.589Z,95057.28
2023-04-16T23:22:27.570Z,95054.78
2023-04-16T23:24:54.244Z,95062.09
2023-04-16T23:27:22.239Z,95055.41
2023-04-16T23:29:48.870Z,95052.56
2023-04-16T23:32:15.447Z,95055.66
2023-04-16T23:34:42.034Z,95058.88
2023-04-16T23:37:08.686Z,95057.84
2023-04-16T23:39:35.275Z,95058.66
2023-04-16T23:42:01.847Z,95056.41
2023-04-16T23:44:29.804Z,95052.97
2023-04-16T23:46:56.514Z,95051.34
2023-04-16T23:49:23.238Z,95052.16
2023-04-16T23:51:49.950Z,95044.25
2023-04-16T23:54:17.104Z,95046.28
2023-04-16T23:56:43.671Z,95046.28
2023-04-16T23:59:13.336Z,95045.06
